createdAt,value
2018-02-09T00:00:27.418Z,52.90
2018-02-09T00:02:55.747Z,57.13
2018-02-09T00:05:24.096Z,57.90
2018-02-09T00:07:52.441Z,58.90
2018-02-09T00:10:20.794Z,60.07
2018-02-09T00:12:49.132Z,58.17
2018-02-09T00:15:17.480Z,53.10
2018-02-09T00:17:45.822Z,56.47
2018-02-09T00:20:14.146Z,54.83
2018-02-09T00:22:53.234Z,55.10
2018-02-09T00:25:21.569Z,58.17
2018-02-09T00:27:49.892Z,57.17
2018-02-09T00:30:18.236Z,55.07
2018-02-09T00:32:46.564Z,53.73
2018-02-09T00:35:14.883Z,53.30
2018-02-09T00:37:43.216Z,52.67
2018-02-09T00:40:11.543Z,55.33
2018-02-09T00:42:39.868Z,51.20
2018-02-09T00:45:08.194Z,52.10
2018-02-09T00:47:36.530Z,54.03
2018-02-09T00:50:04.893Z,50.60
2018-02-09T00:52:33.961Z,59.00
2018-02-09T00:55:02.314Z,57.67
2018-02-09T00:57:30.645Z,55.97
2018-02-09T00:59:58.988Z,53.80
2018-02-09T01:02:27.321Z,59.37
2018-02-09T01:04:55.656Z,50.80
2018-02-09T01:07:24.036Z,54.27
2018-02-09T01:09:52.380Z,56.23
2018-02-09T01:12:20.808Z,60.73
2018-02-09T01:14:49.155Z,53.00
2018-02-09T01:17:17.497Z,58.80
2018-02-09T01:19:45.845Z,57.33
2018-02-09T01:22:14.169Z,56.07
2018-02-09T01:24:42.505Z,59.87
2018-02-09T01:27:10.842Z,54.57
2018-02-09T01:29:39.974Z,58.10
2018-02-09T01:32:08.319Z,54.87
2018-02-09T01:34:36.645Z,55.70
2018-02-09T01:37:04.983Z,51.93
2018-02-09T01:39:33.328Z,41.80
2018-02-09T01:42:01.706Z,35.37
2018-02-09T01:44:30.031Z,41.30
2018-02-09T01:46:58.347Z,45.60
2018-02-09T01:49:26.676Z,47.20
2018-02-09T01:51:54.996Z,37.20
2018-02-09T01:54:23.321Z,39.33
2018-02-09T01:56:51.652Z,45.17
2018-02-09T01:59:20.592Z,46.43
2018-02-09T02:01:48.992Z,47.33
2018-02-09T02:04:17.316Z,50.73
2018-02-09T02:06:45.664Z,46.47
2018-02-09T02:09:14.723Z,47.67
2018-02-09T02:11:43.067Z,51.00
2018-02-09T02:14:11.396Z,45.87
2018-02-09T02:16:39.723Z,41.77
2018-02-09T02:19:08.144Z,44.87
2018-02-09T02:21:36.463Z,47.37
2018-02-09T02:24:04.816Z,40.53
2018-02-09T02:26:33.179Z,43.73
2018-02-09T02:29:01.528Z,45.17
2018-02-09T02:31:29.840Z,38.40
2018-02-09T02:33:58.167Z,42.00
2018-02-09T02:36:26.500Z,45.70
2018-02-09T02:38:54.840Z,41.10
2018-02-09T02:41:23.189Z,45.60
2018-02-09T02:43:51.501Z,43.57
2018-02-09T02:46:19.837Z,43.30
2018-02-09T02:48:48.504Z,43.60
2018-02-09T02:51:16.843Z,38.40
2018-02-09T02:53:46.094Z,41.50
2018-02-09T02:56:14.424Z,39.80
2018-02-09T02:58:42.748Z,39.63
2018-02-09T03:01:11.093Z,41.77
2018-02-09T03:03:39.400Z,42.20
2018-02-09T03:06:07.752Z,41.27
2018-02-09T03:08:36.116Z,43.70
2018-02-09T03:11:04.448Z,44.83
2018-02-09T03:13:32.798Z,41.50
2018-02-09T03:16:01.142Z,44.07
2018-02-09T03:18:29.462Z,41.83
2018-02-09T03:20:57.781Z,40.70
2018-02-09T03:23:26.115Z,38.33
2018-02-09T03:25:54.449Z,38.00
2018-02-09T03:28:22.817Z,40.43
2018-02-09T03:30:51.148Z,40.47
2018-02-09T03:33:19.471Z,43.20
2018-02-09T03:35:47.863Z,38.00
2018-02-09T03:38:16.179Z,39.60
2018-02-09T03:40:44.522Z,39.07
2018-02-09T03:43:12.855Z,34.30
2018-02-09T03:45:41.188Z,34.43
2018-02-09T03:48:09.514Z,38.17
2018-02-09T03:50:37.850Z,41.80
2018-02-09T03:53:06.193Z,40.03
2018-02-09T03:55:34.522Z,45.40
2018-02-09T03:58:02.868Z,45.60
2018-02-09T04:00:31.223Z,47.93
2018-02-09T04:02:59.555Z,41.60
2018-02-09T04:05:27.879Z,42.93
2018-02-09T04:07:56.209Z,45.47
2018-02-09T04:10:24.560Z,45.87
2018-02-09T04:12:52.880Z,46.90
2018-02-09T04:15:21.216Z,45.53
2018-02-09T04:17:49.544Z,41.77
2018-02-09T04:20:17.889Z,42.90
2018-02-09T04:22:46.268Z,45.63
2018-02-09T04:25:14.610Z,42.47
2018-02-09T04:27:42.929Z,49.40
2018-02-09T04:30:11.247Z,44.47
2018-02-09T04:32:39.564Z,44.43
2018-02-09T04:35:07.912Z,43.37
2018-02-09T04:37:36.307Z,43.63
2018-02-09T04:40:04.664Z,47.07
2018-02-09T04:42:33.034Z,49.07
2018-02-09T04:45:01.373Z,50.73
2018-02-09T04:47:29.690Z,53.37
2018-02-09T04:49:58.027Z,57.90
2018-02-09T04:52:26.361Z,58.27
2018-02-09T04:54:54.695Z,53.80
2018-02-09T04:57:23.034Z,53.73
2018-02-09T04:59:51.384Z,57.20
2018-02-09T05:02:19.691Z,54.53
2018-02-09T05:04:48.036Z,51.13
2018-02-09T05:07:16.364Z,54.57
2018-02-09T05:09:44.699Z,54.97
2018-02-09T05:12:13.015Z,52.93
2018-02-09T05:14:41.354Z,54.67
2018-02-09T05:17:09.675Z,55.50
2018-02-09T05:19:38.011Z,55.17
2018-02-09T05:22:06.396Z,51.60
2018-02-09T05:24:34.708Z,54.27
2018-02-09T05:27:03.039Z,56.50
2018-02-09T05:29:31.372Z,57.67
2018-02-09T05:31:59.699Z,54.00
2018-02-09T05:34:28.062Z,57.87
2018-02-09T05:36:56.380Z,57.83
2018-02-09T05:39:24.749Z,51.07
2018-02-09T05:41:53.102Z,57.57
2018-02-09T05:44:21.473Z,56.07
2018-02-09T05:46:49.812Z,58.70
2018-02-09T05:49:18.139Z,54.73
2018-02-09T05:51:46.469Z,57.13
2018-02-09T05:54:14.801Z,52.80
2018-02-09T05:56:43.131Z,58.70
2018-02-09T05:59:11.468Z,55.67
2018-02-09T06:01:42.911Z,54.93
2018-02-09T06:04:11.223Z,54.00
2018-02-09T06:06:39.563Z,57.83
2018-02-09T06:09:07.891Z,58.27
2018-02-09T06:11:36.224Z,56.87
2018-02-09T06:14:04.579Z,60.23
2018-02-09T06:16:33.281Z,57.00
2018-02-09T06:19:01.604Z,57.47
2018-02-09T06:21:29.935Z,58.83
2018-02-09T06:23:58.284Z,59.90
2018-02-09T06:26:26.628Z,60.37
2018-02-09T06:28:54.983Z,54.00
2018-02-09T06:31:23.348Z,54.50
2018-02-09T06:33:51.730Z,53.23
2018-02-09T06:36:20.115Z,58.87
2018-02-09T06:38:48.495Z,56.27
2018-02-09T06:41:16.842Z,55.17
2018-02-09T06:43:45.167Z,58.27
2018-02-09T06:46:13.518Z,58.63
2018-02-09T06:48:42.934Z,58.83
2018-02-09T06:51:11.288Z,55.83
2018-02-09T06:53:39.656Z,58.80
2018-02-09T06:56:08.016Z,56.43
2018-02-09T06:58:37.192Z,59.07
2018-02-09T07:01:05.540Z,57.13
2018-02-09T07:03:34.056Z,59.57
2018-02-09T07:06:02.468Z,55.63
2018-02-09T07:08:31.713Z,54.43
2018-02-09T07:11:00.522Z,60.30
2018-02-09T07:13:28.856Z,60.57
2018-02-09T07:15:57.368Z,53.23
2018-02-09T07:18:26.094Z,57.13
2018-02-09T07:20:54.408Z,51.80
2018-02-09T07:23:22.738Z,56.97
2018-02-09T07:25:51.627Z,55.97
2018-02-09T07:28:20.111Z,57.20
2018-02-09T07:30:52.245Z,56.40
2018-02-09T07:33:20.572Z,58.93
2018-02-09T07:35:48.984Z,57.43
2018-02-09T07:38:17.344Z,54.90
2018-02-09T07:40:45.879Z,64.37
2018-02-09T07:43:22.634Z,60.03
2018-02-09T07:45:51.319Z,57.27
2018-02-09T07:48:20.074Z,59.97
2018-02-09T07:50:49.233Z,61.07
2018-02-09T07:53:17.658Z,56.83
2018-02-09T07:55:46.699Z,58.83
2018-02-09T07:58:15.064Z,58.13
2018-02-09T08:00:43.535Z,55.20
2018-02-09T08:03:11.885Z,59.90
2018-02-09T08:05:40.709Z,53.50
2018-02-09T08:08:09.519Z,57.20
2018-02-09T08:10:38.172Z,56.13
2018-02-09T08:13:06.544Z,49.57
2018-02-09T08:15:34.901Z,52.30
2018-02-09T08:18:03.284Z,49.17
2018-02-09T08:20:31.678Z,42.10
2018-02-09T08:22:59.993Z,37.57
2018-02-09T08:25:28.340Z,34.70
2018-02-09T08:27:56.657Z,30.53
2018-02-09T08:30:25.209Z,33.07
2018-02-09T08:32:53.787Z,31.70
2018-02-09T08:35:22.170Z,32.17
2018-02-09T08:37:51.240Z,32.40
2018-02-09T08:40:20.483Z,32.70
2018-02-09T08:42:48.816Z,31.87
2018-02-09T08:45:17.233Z,32.03
2018-02-09T08:47:45.677Z,35.40
2018-02-09T08:50:14.008Z,33.80
2018-02-09T08:52:42.460Z,34.40
2018-02-09T08:55:11.220Z,33.87
2018-02-09T08:57:39.547Z,34.03
2018-02-09T09:00:07.933Z,35.40
2018-02-09T09:02:36.354Z,30.23
2018-02-09T09:05:04.926Z,32.27
2018-02-09T09:07:33.535Z,27.23
2018-02-09T09:10:02.864Z,32.50
2018-02-09T09:15:03.937Z,31.87
2018-02-09T09:17:32.327Z,29.27
2018-02-09T09:20:01.399Z,26.77
2018-02-09T09:22:29.756Z,22.27
2018-02-09T09:24:58.632Z,32.60
2018-02-09T09:27:28.657Z,32.47
2018-02-09T09:29:57.035Z,34.60
2018-02-09T09:32:25.341Z,30.20
2018-02-09T09:34:54.400Z,33.47
2018-02-09T09:37:22.854Z,32.20
2018-02-09T09:39:51.192Z,31.27
2018-02-09T09:42:19.535Z,31.27
2018-02-09T09:44:47.877Z,23.70
2018-02-09T09:47:16.350Z,30.30
2018-02-09T09:49:44.771Z,27.03
2018-02-09T09:52:13.132Z,24.67
2018-02-09T09:54:41.451Z,33.10
2018-02-09T09:57:09.840Z,33.67
2018-02-09T09:59:38.169Z,36.57
2018-02-09T10:02:06.527Z,34.47
2018-02-09T10:04:35.106Z,35.40
2018-02-09T10:07:03.484Z,32.10
2018-02-09T10:09:31.847Z,32.40
2018-02-09T10:12:00.244Z,27.07
2018-02-09T10:14:28.584Z,30.87
2018-02-09T10:16:56.972Z,33.83
2018-02-09T10:19:25.692Z,34.53
2018-02-09T10:21:54.050Z,35.60
2018-02-09T10:24:23.822Z,34.60
2018-02-09T10:26:52.177Z,34.10
2018-02-09T10:29:20.501Z,28.07
2018-02-09T10:31:48.894Z,33.30
2018-02-09T10:34:17.226Z,33.90
2018-02-09T10:36:45.624Z,36.50
2018-02-09T10:39:14.777Z,36.70
2018-02-09T10:41:43.177Z,38.00
2018-02-09T10:44:11.590Z,33.87
2018-02-09T10:46:40.100Z,38.20
2018-02-09T10:49:08.441Z,37.47
2018-02-09T10:51:36.879Z,37.07
2018-02-09T10:54:05.659Z,33.17
2018-02-09T10:56:34.142Z,35.67
2018-02-09T10:59:02.627Z,32.70
2018-02-09T11:01:37.207Z,36.40
2018-02-09T11:04:05.616Z,38.27
2018-02-09T11:06:34.076Z,38.50
2018-02-09T11:09:02.630Z,35.53
2018-02-09T11:11:31.968Z,40.23
2018-02-09T11:14:00.291Z,37.37
2018-02-09T11:16:28.649Z,38.40
2018-02-09T11:18:57.044Z,35.67
2018-02-09T11:21:25.742Z,37.13
2018-02-09T11:23:54.271Z,34.83
2018-02-09T11:26:22.763Z,34.87
2018-02-09T11:28:51.163Z,32.63
2018-02-09T11:31:19.584Z,33.30
2018-02-09T11:33:48.227Z,31.60
2018-02-09T11:36:16.605Z,38.37
2018-02-09T11:38:45.092Z,29.07
2018-02-09T11:41:13.862Z,32.47
2018-02-09T11:43:42.580Z,33.10
2018-02-09T11:46:11.232Z,37.73
2018-02-09T11:48:39.611Z,33.30
2018-02-09T11:51:08.025Z,32.80
2018-02-09T11:53:37.189Z,37.03
2018-02-09T11:56:05.540Z,34.53
2018-02-09T11:58:34.455Z,34.10
2018-02-09T12:01:02.833Z,33.77
2018-02-09T12:03:32.150Z,32.23
2018-02-09T12:06:00.525Z,34.77
2018-02-09T12:08:28.866Z,36.43
2018-02-09T12:10:57.349Z,34.40
2018-02-09T12:13:25.792Z,33.27
2018-02-09T12:15:54.232Z,38.10
2018-02-09T12:18:26.104Z,32.13
2018-02-09T12:20:54.528Z,37.40
2018-02-09T12:23:22.913Z,34.77
2018-02-09T12:25:51.221Z,37.00
2018-02-09T12:28:19.676Z,35.50
2018-02-09T12:30:48.045Z,36.83
2018-02-09T12:33:16.462Z,37.07
2018-02-09T12:35:45.116Z,33.90
2018-02-09T12:38:13.524Z,34.13
2018-02-09T12:40:41.853Z,35.67
2018-02-09T12:43:10.204Z,37.63
2018-02-09T12:45:38.547Z,41.10
2018-02-09T12:48:13.017Z,35.30
2018-02-09T12:50:41.337Z,41.50
2018-02-09T12:53:09.798Z,39.33
2018-02-09T12:55:38.737Z,38.23
2018-02-09T12:58:07.124Z,39.20
2018-02-09T13:00:35.544Z,40.93
2018-02-09T13:03:05.726Z,44.63
2018-02-09T13:05:34.147Z,40.40
2018-02-09T13:08:02.589Z,41.83
2018-02-09T13:13:08.285Z,33.97
2018-02-09T13:15:36.639Z,35.07
2018-02-09T13:18:05.005Z,35.67
2018-02-09T13:20:33.558Z,42.40
2018-02-09T13:26:05.876Z,45.40
2018-02-09T13:28:45.998Z,41.27
2018-02-09T13:31:14.765Z,40.80
2018-02-09T13:33:43.136Z,40.60
2018-02-09T13:36:15.402Z,37.30
2018-02-09T13:38:43.865Z,40.50
2018-02-09T13:41:12.221Z,44.43
2018-02-09T13:43:40.603Z,42.57
2018-02-09T13:46:09.009Z,38.57
2018-02-09T13:48:37.472Z,44.63
2018-02-09T13:51:05.787Z,42.73
2018-02-09T13:53:35.063Z,45.17
2018-02-09T13:56:03.407Z,47.60
2018-02-09T13:58:31.749Z,41.87
2018-02-09T14:01:00.168Z,44.60
2018-02-09T14:03:29.201Z,46.40
2018-02-09T14:05:59.262Z,45.37
2018-02-09T14:08:27.990Z,43.87
2018-02-09T14:10:56.386Z,43.97
2018-02-09T14:13:25.359Z,44.37
2018-02-09T14:15:53.713Z,44.23
2018-02-09T14:18:23.137Z,40.77
2018-02-09T14:20:51.981Z,48.20
2018-02-09T14:23:20.367Z,47.03
2018-02-09T14:25:49.019Z,45.00
2018-02-09T14:28:17.381Z,43.30
2018-02-09T14:30:45.834Z,46.20
2018-02-09T14:33:14.459Z,45.00
2018-02-09T14:35:42.903Z,43.53
2018-02-09T14:38:11.337Z,46.30
2018-02-09T14:40:39.903Z,44.00
2018-02-09T14:43:08.235Z,46.23
2018-02-09T14:45:36.856Z,46.70
2018-02-09T14:48:05.336Z,44.93
2018-02-09T14:50:34.060Z,47.47
2018-02-09T14:53:02.482Z,45.00
2018-02-09T14:55:30.840Z,47.37
2018-02-09T14:57:59.175Z,46.57
2018-02-09T15:00:27.525Z,44.17
2018-02-09T15:02:55.990Z,47.17
2018-02-09T15:05:24.447Z,46.90
2018-02-09T15:07:52.872Z,46.00
2018-02-09T15:10:21.458Z,44.63
2018-02-09T15:12:49.826Z,45.87
2018-02-09T15:15:18.191Z,48.23
2018-02-09T15:17:46.577Z,37.83
2018-02-09T15:20:14.973Z,34.90
2018-02-09T15:22:43.596Z,32.40
2018-02-09T15:25:12.084Z,34.23
2018-02-09T15:27:40.425Z,37.70
2018-02-09T15:30:08.808Z,42.67
2018-02-09T15:35:11.641Z,40.73
2018-02-09T15:37:40.075Z,28.57
2018-02-09T15:40:08.415Z,38.00
2018-02-09T15:42:36.849Z,41.40
2018-02-09T15:45:05.443Z,41.63
2018-02-09T15:47:33.814Z,43.03
2018-02-09T15:50:02.813Z,45.43
2018-02-09T15:52:31.196Z,43.13
2018-02-09T15:54:59.544Z,46.63
2018-02-09T15:57:28.195Z,46.27
2018-02-09T15:59:56.593Z,43.03
2018-02-09T16:02:25.022Z,39.30
2018-02-09T16:04:53.388Z,43.73
2018-02-09T16:07:22.269Z,42.17
2018-02-09T16:09:50.629Z,42.03
2018-02-09T16:12:19.264Z,37.90
2018-02-09T16:14:47.620Z,39.60
2018-02-09T16:17:15.955Z,42.67
2018-02-09T16:19:44.422Z,43.50
2018-02-09T16:22:15.298Z,41.80
2018-02-09T16:24:43.673Z,42.33
2018-02-09T16:27:12.048Z,43.63
2018-02-09T16:29:40.461Z,42.00
2018-02-09T16:32:08.855Z,44.27
2018-02-09T16:34:37.425Z,41.00
2018-02-09T16:37:06.727Z,43.20
2018-02-09T16:39:35.187Z,40.47
2018-02-09T16:42:03.541Z,46.27
2018-02-09T16:44:31.910Z,43.80
2018-02-09T16:47:00.360Z,43.30
2018-02-09T16:49:29.933Z,41.80
2018-02-09T16:51:58.259Z,41.77
2018-02-09T16:54:26.637Z,43.30
2018-02-09T16:56:55.269Z,43.57
2018-02-09T16:59:23.625Z,40.50
2018-02-09T17:01:51.965Z,40.67
2018-02-09T17:04:20.466Z,42.83
2018-02-09T17:06:48.837Z,45.13
2018-02-09T17:09:17.240Z,42.43
2018-02-09T17:11:45.562Z,42.43
2018-02-09T17:14:13.924Z,44.27
2018-02-09T17:16:42.316Z,45.87
2018-02-09T17:19:10.671Z,40.07
2018-02-09T17:21:39.043Z,36.17
2018-02-09T17:24:07.410Z,37.00
2018-02-09T17:26:35.763Z,38.00
2018-02-09T17:29:04.269Z,40.43
2018-02-09T17:31:32.670Z,36.90
2018-02-09T17:34:01.520Z,41.33
2018-02-09T17:36:30.185Z,37.20
2018-02-09T17:38:58.567Z,36.27
2018-02-09T17:41:26.916Z,36.93
2018-02-09T17:43:55.260Z,41.40
2018-02-09T17:46:23.591Z,44.37
2018-02-09T17:48:53.202Z,38.00
2018-02-09T17:51:21.837Z,38.87
2018-02-09T17:53:50.190Z,40.83
2018-02-09T17:56:19.367Z,39.47
2018-02-09T17:58:52.342Z,40.73
2018-02-09T18:01:22.630Z,42.50
2018-02-09T18:03:50.986Z,42.60
2018-02-09T18:06:19.882Z,32.77
2018-02-09T18:08:48.425Z,21.63
2018-02-09T18:11:16.754Z,36.90
2018-02-09T18:13:45.213Z,41.67
2018-02-09T18:16:13.677Z,42.00
2018-02-09T18:18:42.060Z,38.20
2018-02-09T18:21:10.435Z,39.17
2018-02-09T18:23:38.779Z,37.00
2018-02-09T18:26:07.088Z,41.37
2018-02-09T18:28:35.445Z,39.10
2018-02-09T18:31:03.825Z,40.17
2018-02-09T18:33:32.204Z,41.20
2018-02-09T18:36:00.519Z,42.07
2018-02-09T18:38:28.865Z,41.37
2018-02-09T18:40:57.196Z,41.77
2018-02-09T18:43:25.608Z,43.83
2018-02-09T18:45:53.972Z,46.37
2018-02-09T18:48:22.415Z,39.70
2018-02-09T18:50:50.818Z,38.20
2018-02-09T18:53:19.232Z,39.83
2018-02-09T18:55:47.682Z,38.70
2018-02-09T18:58:16.176Z,38.23
2018-02-09T19:00:44.549Z,38.83
2018-02-09T19:03:16.257Z,38.60
2018-02-09T19:05:44.603Z,42.00
2018-02-09T19:08:13.937Z,39.10
2018-02-09T19:10:42.340Z,40.47
2018-02-09T19:13:10.699Z,42.27
2018-02-09T19:15:39.052Z,41.17
2018-02-09T19:18:07.426Z,41.80
2018-02-09T19:20:35.820Z,44.27
2018-02-09T19:23:04.268Z,44.20
2018-02-09T19:25:32.755Z,45.97
2018-02-09T19:28:01.173Z,42.73
2018-02-09T19:30:29.510Z,39.77
2018-02-09T19:32:57.843Z,39.10
2018-02-09T19:35:26.218Z,40.20
2018-02-09T19:37:54.657Z,41.33
2018-02-09T19:40:23.002Z,39.90
2018-02-09T19:42:51.465Z,39.33
2018-02-09T19:45:19.834Z,38.17
2018-02-09T19:47:49.005Z,34.70
2018-02-09T19:50:17.359Z,39.67
2018-02-09T19:52:49.410Z,38.20
2018-02-09T19:55:18.117Z,39.10
2018-02-09T19:57:46.528Z,41.20
2018-02-09T20:00:14.878Z,41.13
2018-02-09T20:02:43.298Z,42.57
2018-02-09T20:05:11.912Z,42.13
2018-02-09T20:07:40.237Z,43.43
2018-02-09T20:10:08.752Z,42.00
2018-02-09T20:12:37.126Z,41.67
2018-02-09T20:15:05.545Z,40.37
2018-02-09T20:17:33.907Z,42.90
2018-02-09T20:20:02.255Z,41.20
2018-02-09T20:22:30.659Z,44.13
2018-02-09T20:24:59.172Z,43.20
2018-02-09T20:27:27.543Z,44.20
2018-02-09T20:29:55.897Z,44.53
2018-02-09T20:32:24.252Z,49.13
2018-02-09T20:34:52.600Z,42.30
2018-02-09T20:37:20.962Z,43.50
2018-02-09T20:39:49.266Z,42.30
2018-02-09T20:42:17.636Z,44.90
2018-02-09T20:44:46.131Z,44.03
2018-02-09T20:47:14.478Z,41.57
2018-02-09T20:49:42.799Z,40.80
2018-02-09T20:52:11.163Z,42.33
2018-02-09T20:54:39.577Z,42.67
2018-02-09T20:57:08.020Z,41.00
2018-02-09T20:59:36.384Z,40.87
2018-02-09T21:02:04.712Z,39.90
2018-02-09T21:04:33.121Z,37.73
2018-02-09T21:07:01.708Z,38.67
2018-02-09T21:09:30.048Z,40.57
2018-02-09T21:11:58.472Z,41.07
2018-02-09T21:14:26.846Z,45.37
2018-02-09T21:16:55.222Z,41.03
2018-02-09T21:19:23.588Z,40.13
2018-02-09T21:21:51.976Z,45.50
2018-02-09T21:24:20.399Z,45.20
2018-02-09T21:26:48.752Z,40.10
2018-02-09T21:29:17.105Z,42.67
2018-02-09T21:31:45.476Z,40.20
2018-02-09T21:34:13.855Z,37.70
2018-02-09T21:36:42.187Z,43.63
2018-02-09T21:39:10.556Z,41.33
2018-02-09T21:41:38.939Z,41.50
2018-02-09T21:44:07.287Z,39.93
2018-02-09T21:46:35.672Z,40.90
2018-02-09T21:49:04.032Z,38.50
2018-02-09T21:51:32.412Z,38.17
2018-02-09T21:54:00.809Z,43.57
2018-02-09T21:56:29.112Z,42.47
2018-02-09T21:58:57.466Z,38.93
2018-02-09T22:01:25.791Z,36.00
2018-02-09T22:03:54.143Z,40.20
2018-02-09T22:06:23.066Z,42.53
2018-02-09T22:08:51.412Z,42.77
2018-02-09T22:11:20.077Z,42.07
2018-02-09T22:13:48.548Z,44.57
2018-02-09T22:16:16.853Z,42.00
2018-02-09T22:18:45.186Z,38.70
2018-02-09T22:21:13.562Z,40.80
2018-02-09T22:23:41.925Z,41.57
2018-02-09T22:26:10.272Z,35.70
2018-02-09T22:28:38.644Z,37.23
2018-02-09T22:31:07.021Z,40.87
2018-02-09T22:33:35.348Z,38.40
2018-02-09T22:36:03.699Z,38.53
2018-02-09T22:38:32.102Z,38.90
2018-02-09T22:41:00.650Z,38.53
2018-02-09T22:43:28.987Z,36.03
2018-02-09T22:45:57.316Z,38.20
2018-02-09T22:48:25.643Z,39.00
2018-02-09T22:50:53.987Z,41.50
2018-02-09T22:53:22.323Z,35.10
2018-02-09T22:55:50.660Z,34.60
2018-02-09T22:58:18.985Z,40.93
2018-02-09T23:00:47.303Z,38.03
2018-02-09T23:03:15.639Z,39.70
2018-02-09T23:05:43.991Z,36.63
2018-02-09T23:08:12.324Z,38.27
2018-02-09T23:10:40.751Z,37.20
2018-02-09T23:13:09.127Z,37.67
2018-02-09T23:15:37.471Z,36.37
2018-02-09T23:18:05.803Z,36.07
2018-02-09T23:20:34.392Z,34.43
2018-02-09T23:23:02.743Z,32.43
2018-02-09T23:25:31.078Z,38.23
2018-02-09T23:27:59.404Z,36.43
2018-02-09T23:30:27.740Z,35.00
2018-02-09T23:32:56.056Z,33.53
2018-02-09T23:35:24.395Z,32.27
2018-02-09T23:37:52.709Z,34.43
2018-02-09T23:40:21.049Z,33.00
2018-02-09T23:42:49.364Z,31.50
2018-02-09T23:45:17.708Z,35.23
2018-02-09T23:47:46.027Z,35.50
2018-02-09T23:50:14.350Z,34.83
2018-02-09T23:52:42.684Z,32.37
2018-02-09T23:55:11.003Z,36.10
2018-02-09T23:57:39.359Z,36.00
